Airfield :
LOGIN :

Register | Disclaimer

   EN    FR    IT 

 










Legend :    VFR   Marginal VFR   IFR   Intensive IFR   Very Intensive IFR
Visi :
Ceiling :
>= 8 km
>= 3000ft
5 to 8 km
1000 to 3000 ft
1500m to 5 km
500 to 1000 ft
800 to 1500m
200 to 500 ft
< 800m
< 200 ft
Symbols :   Thunderstorms  Fog  Heavy snow  Heavy precipitations  Wind > 20 kt
SIGMETs :     Misc.  Thunderstorms  Icing  Turbulence  Mountain Waves  Volcanic Ashes







- Airport Elevation : 681 ft
- IATA code : LBA
- Download approach charts


EGNM - Leeds Bradford

CURRENT METAR :
  • 210250Z 14007KT 110V170 0500 FG VV/// 10/10 Q0996

EXPIRED METARs :
  • 210220Z 15006KT 110V180 1200 BR OVC001 10/10 Q0997
  • 210150Z 16009KT 120V190 3000 BR OVC001 10/10 Q0997
  • 210120Z 15010KT 110V190 2000 -RA BR BKN002 10/// Q0997
  • 210050Z 14010KT 110V180 1200 -RA BR OVC001 09/// Q0998
  • 210020Z 14010KT 9000 -RA BKN007 09/09 Q0998

TAF AMD TAF EGNM
Valid from the 21 at 02:00 until the 22 at 00:00 UTC


210225Z 2102/2124 15008KT 1200 -RADZ BR OVC001
BECMG 2102/2103 9999 NSW SCT025
BECMG 2108/2111 17017G28KT
TEMPO 2109/2124 7000 SHRA
PROB40
TEMPO 2115/2124 19025G39KT 3000 +SHRA BKN007 BKN015CB
ATIS : +44 113 250 9696 (x2489)
No reported NOTAMs for that airfield.
1 SIGMET reported for the London FIR (EGTT) :
 
Severe turbulence
EGTT SIGMET 01 VALID 210200/210600 EGRR
EGTT LONDON FIR SEV TURB FCST WI N4850 W00800 - N5100 W00800 - N5220 W00530 - N5340 W00530 - N5340 W00400 - N4937 W00400 - N4850 W00800 SFC/FL060 MOV E 20KT NC=



MET'MAP, your aeronautical weather chart ! - Copyright ORBIFLY December 2007 - Disclaimer

ORBIFLY MET'MAP TEAM :

Programming & Development : Alexandra Zaïnal
Concept & Development : Baudouin d'Aumeries
Co-Development & Prog : Marc-Olivier Méhu
Technical & hardware support : Manuel Goepfert

Contact : metmap@orbifly.com




SOURCES & CREDITS :

   NOAA